createdAt,value
2023-05-10T00:01:56.813Z,82.32
2023-05-10T00:04:28.364Z,81.29
2023-05-10T00:06:57.207Z,82.02
2023-05-10T00:09:26.002Z,82.60
2023-05-10T00:11:54.861Z,82.68
2023-05-10T00:14:23.575Z,82.27
2023-05-10T00:16:53.704Z,82.29
2023-05-10T00:19:22.441Z,82.23
2023-05-10T00:21:51.125Z,85.49
2023-05-10T00:24:19.852Z,83.61
2023-05-10T00:26:48.676Z,85.29
2023-05-10T00:29:17.434Z,84.41
2023-05-10T00:31:46.244Z,86.41
2023-05-10T00:34:16.351Z,86.26
2023-05-10T00:36:45.093Z,88.60
2023-05-10T00:39:13.779Z,86.83
2023-05-10T00:41:42.493Z,88.22
2023-05-10T00:44:11.606Z,88.08
2023-05-10T00:46:40.486Z,90.12
2023-05-10T00:49:09.674Z,90.52
2023-05-10T00:51:39.875Z,90.00
2023-05-10T00:54:08.862Z,91.28
2023-05-10T00:56:37.748Z,92.83
2023-05-10T00:59:06.544Z,92.91
2023-05-10T01:01:35.551Z,93.40
2023-05-10T01:04:05.116Z,94.30
2023-05-10T01:06:33.949Z,94.18
2023-05-10T01:09:04.088Z,94.15
2023-05-10T01:11:33.118Z,95.05
2023-05-10T01:14:01.874Z,94.13
2023-05-10T01:16:31.961Z,94.07
2023-05-10T01:19:01.357Z,96.65
2023-05-10T01:21:38.757Z,96.89
2023-05-10T01:24:49.033Z,98.46
2023-05-10T01:27:43.446Z,100.00
2023-05-10T01:30:49.795Z,100.00
2023-05-10T01:33:22.305Z,100.00
2023-05-10T01:35:57.566Z,100.00
2023-05-10T01:38:35.200Z,100.00
2023-05-10T01:41:19.287Z,100.00
2023-05-10T01:43:56.063Z,100.00
2023-05-10T01:46:30.854Z,100.00
2023-05-10T01:49:02.750Z,100.00
2023-05-10T01:51:41.596Z,100.00
2023-05-10T01:54:13.962Z,100.00
2023-05-10T01:56:46.009Z,100.00
2023-05-10T01:59:20.375Z,100.00
2023-05-10T02:01:53.152Z,100.00
2023-05-10T02:04:26.836Z,100.00
2023-05-10T02:06:57.504Z,100.00
2023-05-10T02:09:30.100Z,100.00
2023-05-10T02:12:02.021Z,100.00
2023-05-10T02:14:32.682Z,100.00
2023-05-10T02:17:04.208Z,100.00
2023-05-10T02:19:36.522Z,100.00
2023-05-10T02:22:07.535Z,100.00
2023-05-10T02:24:38.800Z,100.00
2023-05-10T02:27:08.392Z,100.00
2023-05-10T02:29:38.608Z,100.00
2023-05-10T02:32:08.023Z,100.00
2023-05-10T02:34:43.102Z,100.00
2023-05-10T02:37:12.643Z,100.00
2023-05-10T02:39:44.779Z,100.00
2023-05-10T02:42:19.930Z,100.00
2023-05-10T02:44:52.657Z,100.00
2023-05-10T02:47:22.126Z,100.00
2023-05-10T02:49:52.270Z,100.00
2023-05-10T02:52:26.831Z,100.00
2023-05-10T02:54:58.731Z,100.00
2023-05-10T02:57:30.808Z,100.00
2023-05-10T03:00:01.144Z,100.00
2023-05-10T03:02:31.545Z,100.00
2023-05-10T03:05:01.714Z,100.00
2023-05-10T03:07:30.887Z,100.00
2023-05-10T03:09:59.791Z,100.00
2023-05-10T03:12:35.800Z,100.00
2023-05-10T03:15:13.347Z,100.00
2023-05-10T03:17:49.392Z,100.00
2023-05-10T03:20:27.079Z,100.00
2023-05-10T03:23:04.526Z,100.00
2023-05-10T03:25:34.552Z,100.00
2023-05-10T03:28:08.067Z,100.00
2023-05-10T03:30:39.354Z,100.00
2023-05-10T03:33:09.715Z,100.00
2023-05-10T03:35:46.618Z,100.00
2023-05-10T03:38:16.407Z,100.00
2023-05-10T03:40:45.189Z,100.00
2023-05-10T03:43:13.985Z,100.00
2023-05-10T03:45:42.721Z,100.00
2023-05-10T03:48:11.510Z,100.00
2023-05-10T03:50:40.305Z,100.00
2023-05-10T03:53:10.557Z,100.00
2023-05-10T03:55:39.292Z,100.00
2023-05-10T03:58:08.053Z,100.00
2023-05-10T04:00:36.840Z,100.00
2023-05-10T04:06:00.167Z,98.83
2023-05-10T04:08:31.046Z,98.48
2023-05-10T04:11:09.599Z,98.14
2023-05-10T04:13:41.011Z,97.66
2023-05-10T04:16:09.725Z,97.73
2023-05-10T04:18:38.494Z,96.86
2023-05-10T04:21:12.876Z,96.56
2023-05-10T04:23:43.241Z,95.81
2023-05-10T04:26:12.185Z,95.93
2023-05-10T04:28:40.923Z,95.78
2023-05-10T04:31:11.257Z,95.23
2023-05-10T04:33:40.044Z,95.27
2023-05-10T04:36:09.190Z,94.78
2023-05-10T04:38:37.934Z,94.41
2023-05-10T04:41:09.128Z,94.02
2023-05-10T04:43:38.387Z,93.91
2023-05-10T04:46:07.855Z,93.86
2023-05-10T04:48:36.727Z,92.78
2023-05-10T04:51:07.339Z,92.60
2023-05-10T04:53:36.246Z,92.44
2023-05-10T04:56:05.239Z,91.86
2023-05-10T04:58:38.302Z,91.25
2023-05-10T05:01:11.513Z,90.44
2023-05-10T05:03:41.445Z,90.20
2023-05-10T05:06:10.453Z,89.58
2023-05-10T05:08:40.637Z,88.61
2023-05-10T05:11:09.299Z,87.88
2023-05-10T05:13:39.846Z,87.17
2023-05-10T05:16:08.963Z,86.07
2023-05-10T05:18:37.704Z,85.55
2023-05-10T05:21:15.934Z,84.46
2023-05-10T05:23:44.633Z,82.43
2023-05-10T05:26:13.776Z,81.92
2023-05-10T05:28:44.025Z,81.78
2023-05-10T05:31:12.894Z,80.36
2023-05-10T05:33:41.683Z,80.53
2023-05-10T05:36:10.846Z,80.17
2023-05-10T05:38:39.542Z,78.97
2023-05-10T05:41:08.351Z,78.86
2023-05-10T05:43:38.465Z,78.86
2023-05-10T05:46:08.862Z,78.70
2023-05-10T05:48:37.924Z,78.37
2023-05-10T05:51:07.374Z,78.21
2023-05-10T05:53:38.496Z,77.83
2023-05-10T05:56:08.893Z,78.06
2023-05-10T05:58:37.687Z,76.43
2023-05-10T06:01:08.648Z,76.82
2023-05-10T06:03:37.750Z,75.87
2023-05-10T06:06:08.982Z,75.00
2023-05-10T06:08:37.727Z,74.74
2023-05-10T06:11:06.536Z,74.84
2023-05-10T06:13:36.299Z,74.44
2023-05-10T06:16:05.756Z,74.44
2023-05-10T06:18:35.875Z,74.61
2023-05-10T06:21:04.657Z,73.69
2023-05-10T06:23:33.445Z,72.37
2023-05-10T06:26:02.160Z,72.20
2023-05-10T06:28:32.279Z,71.84
2023-05-10T06:31:01.094Z,71.65
2023-05-10T06:33:29.935Z,71.48
2023-05-10T06:36:00.185Z,70.54
2023-05-10T06:38:28.982Z,70.24
2023-05-10T06:40:58.124Z,69.79
2023-05-10T06:43:27.267Z,69.60
2023-05-10T06:45:56.028Z,68.50
2023-05-10T06:48:45.605Z,67.42
2023-05-10T06:51:15.724Z,67.52
2023-05-10T06:53:44.495Z,65.64
2023-05-10T06:56:13.245Z,63.71
2023-05-10T06:58:41.913Z,64.21
2023-05-10T07:01:10.817Z,64.86
2023-05-10T07:03:39.661Z,63.40
2023-05-10T07:06:13.344Z,63.24
2023-05-10T07:08:48.961Z,63.25
2023-05-10T07:11:18.833Z,63.66
2023-05-10T07:13:47.574Z,63.83
2023-05-10T07:16:16.322Z,63.30
2023-05-10T07:18:45.057Z,62.28
2023-05-10T07:21:13.885Z,61.59
2023-05-10T07:23:44.362Z,61.33
2023-05-10T07:26:15.921Z,59.80
2023-05-10T07:28:44.850Z,59.78
2023-05-10T07:31:13.579Z,58.65
2023-05-10T07:33:42.289Z,58.92
2023-05-10T07:36:11.089Z,59.15
2023-05-10T07:38:41.057Z,57.48
2023-05-10T07:41:09.932Z,57.16
2023-05-10T07:43:41.001Z,55.92
2023-05-10T07:46:11.114Z,56.66
2023-05-10T07:48:40.000Z,56.80
2023-05-10T07:51:10.388Z,57.04
2023-05-10T07:53:39.478Z,57.26
2023-05-10T07:56:26.000Z,56.84
2023-05-10T07:58:56.395Z,56.68
2023-05-10T08:01:25.375Z,55.72
2023-05-10T08:03:54.566Z,55.17
2023-05-10T08:06:23.798Z,54.01
2023-05-10T08:08:53.228Z,53.65
2023-05-10T08:11:22.588Z,53.40
2023-05-10T08:13:52.750Z,52.61
2023-05-10T08:16:23.055Z,51.39
2023-05-10T08:18:52.047Z,50.95
2023-05-10T08:21:20.822Z,49.74
2023-05-10T08:23:49.994Z,49.57
2023-05-10T08:26:18.793Z,49.84
2023-05-10T08:28:47.533Z,50.06
2023-05-10T08:31:17.098Z,49.95
2023-05-10T08:33:47.269Z,48.60
2023-05-10T08:36:20.730Z,48.42
2023-05-10T08:38:50.275Z,47.02
2023-05-10T08:41:21.959Z,47.21
2023-05-10T08:43:50.724Z,47.62
2023-05-10T08:46:21.234Z,47.60
2023-05-10T08:48:53.534Z,47.63
2023-05-10T08:51:24.830Z,47.60
2023-05-10T08:53:53.895Z,47.93
2023-05-10T08:56:22.641Z,47.60
2023-05-10T08:58:52.447Z,47.07
2023-05-10T09:01:22.506Z,46.28
2023-05-10T09:03:53.767Z,46.77
2023-05-10T09:06:22.943Z,46.68
2023-05-10T09:08:51.749Z,45.97
2023-05-10T09:11:21.996Z,45.19
2023-05-10T09:13:52.492Z,44.83
2023-05-10T09:16:22.434Z,44.10
2023-05-10T09:18:53.118Z,44.50
2023-05-10T09:21:22.736Z,44.01
2023-05-10T09:23:55.081Z,44.42
2023-05-10T09:26:25.227Z,44.83
2023-05-10T09:28:55.608Z,45.00
2023-05-10T09:31:26.129Z,44.60
2023-05-10T09:33:56.478Z,44.58
2023-05-10T09:36:25.157Z,44.15
2023-05-10T09:38:54.665Z,43.61
2023-05-10T09:41:24.672Z,43.10
2023-05-10T09:43:57.550Z,43.02
2023-05-10T09:46:27.158Z,43.08
2023-05-10T09:48:57.262Z,42.15
2023-05-10T09:51:27.885Z,41.87
2023-05-10T09:54:12.746Z,41.85
2023-05-10T09:56:41.929Z,42.18
2023-05-10T09:59:13.986Z,42.17
2023-05-10T10:01:43.335Z,41.40
2023-05-10T10:04:14.040Z,40.98
2023-05-10T10:06:43.206Z,41.24
2023-05-10T10:09:15.997Z,41.69
2023-05-10T10:11:44.829Z,42.02
2023-05-10T10:14:14.621Z,42.08
2023-05-10T10:16:55.465Z,42.29
2023-05-10T10:19:36.436Z,41.01
2023-05-10T10:22:05.607Z,41.19
2023-05-10T10:24:34.355Z,41.57
2023-05-10T10:27:18.652Z,41.36
2023-05-10T10:30:10.232Z,41.46
2023-05-10T10:32:57.292Z,41.70
2023-05-10T10:35:27.637Z,41.68
2023-05-10T10:37:56.421Z,42.10
2023-05-10T10:40:30.513Z,40.42
2023-05-10T10:43:21.017Z,40.31
2023-05-10T10:46:14.289Z,39.09
2023-05-10T10:48:43.752Z,39.85
2023-05-10T10:51:16.478Z,39.38
2023-05-10T10:53:45.956Z,38.59
2023-05-10T10:56:16.605Z,38.48
2023-05-10T10:58:52.848Z,38.41
2023-05-10T11:01:21.962Z,38.23
2023-05-10T11:04:21.446Z,37.91
2023-05-10T11:06:51.678Z,37.85
2023-05-10T11:09:21.783Z,37.04
2023-05-10T11:11:56.203Z,36.91
2023-05-10T11:14:25.405Z,37.24
2023-05-10T11:16:54.313Z,38.17
2023-05-10T11:19:23.160Z,38.39
2023-05-10T11:22:13.993Z,38.53
2023-05-10T11:24:59.172Z,38.03
2023-05-10T11:27:28.146Z,38.42
2023-05-10T11:29:56.875Z,38.06
2023-05-10T11:32:25.932Z,37.13
2023-05-10T11:34:54.678Z,36.95
2023-05-10T11:37:24.758Z,36.70
2023-05-10T11:39:53.551Z,36.28
2023-05-10T11:42:22.325Z,36.96
2023-05-10T11:44:51.015Z,37.38
2023-05-10T11:47:19.511Z,37.76
2023-05-10T11:49:48.538Z,37.92
2023-05-10T11:52:17.290Z,37.96
2023-05-10T11:54:54.428Z,37.29
2023-05-10T11:57:27.761Z,37.38
2023-05-10T11:59:56.881Z,37.35
2023-05-10T12:02:26.183Z,37.31
2023-05-10T12:04:55.215Z,36.94
2023-05-10T12:07:24.153Z,37.55
2023-05-10T12:10:08.608Z,37.82
2023-05-10T12:12:42.901Z,37.85
2023-05-10T12:15:19.715Z,37.11
2023-05-10T12:17:49.198Z,37.57
2023-05-10T12:20:22.871Z,37.22
2023-05-10T12:22:54.004Z,36.62
2023-05-10T12:25:26.040Z,36.18
2023-05-10T12:27:56.690Z,36.40
2023-05-10T12:30:26.412Z,36.42
2023-05-10T12:32:56.108Z,35.63
2023-05-10T12:35:25.158Z,35.79
2023-05-10T12:37:53.920Z,35.86
2023-05-10T12:40:24.130Z,34.88
2023-05-10T12:42:53.590Z,35.16
2023-05-10T12:45:23.079Z,35.60
2023-05-10T12:47:51.827Z,35.42
2023-05-10T12:50:20.673Z,34.99
2023-05-10T12:52:49.338Z,35.68
2023-05-10T12:55:18.148Z,36.32
2023-05-10T12:57:48.223Z,36.88
2023-05-10T13:00:18.140Z,37.11
2023-05-10T13:02:47.072Z,37.43
2023-05-10T13:05:15.807Z,37.20
2023-05-10T13:07:45.101Z,37.12
2023-05-10T13:10:13.852Z,36.25
2023-05-10T13:12:42.609Z,36.22
2023-05-10T13:15:13.001Z,36.12
2023-05-10T13:17:43.632Z,34.98
2023-05-10T13:20:13.277Z,35.45
2023-05-10T13:22:43.160Z,35.85
2023-05-10T13:25:12.305Z,35.99
2023-05-10T13:27:41.168Z,36.18
2023-05-10T13:30:12.314Z,35.96
2023-05-10T13:32:41.184Z,36.05
2023-05-10T13:35:11.128Z,36.28
2023-05-10T13:37:39.836Z,36.28
2023-05-10T13:40:09.687Z,35.96
2023-05-10T13:42:38.550Z,35.77
2023-05-10T13:45:08.544Z,35.47
2023-05-10T13:47:38.741Z,35.34
2023-05-10T13:50:08.566Z,35.14
2023-05-10T13:52:37.382Z,34.76
2023-05-10T13:55:06.868Z,33.21
2023-05-10T13:57:36.780Z,33.38
2023-05-10T14:00:06.460Z,33.51
2023-05-10T14:02:38.118Z,33.00
2023-05-10T14:05:07.772Z,33.37
2023-05-10T14:07:36.511Z,33.54
2023-05-10T14:10:05.723Z,33.02
2023-05-10T14:12:34.450Z,34.08
2023-05-10T14:15:03.460Z,34.21
2023-05-10T14:17:32.387Z,34.13
2023-05-10T14:20:02.997Z,34.57
2023-05-10T14:22:31.747Z,33.75
2023-05-10T14:25:00.776Z,33.47
2023-05-10T14:27:29.549Z,33.40
2023-05-10T14:29:58.346Z,33.48
2023-05-10T14:32:28.497Z,33.50
2023-05-10T14:34:57.716Z,33.88
2023-05-10T14:37:27.834Z,34.16
2023-05-10T14:39:56.761Z,34.29
2023-05-10T14:42:25.692Z,33.04
2023-05-10T14:44:54.494Z,33.17
2023-05-10T14:47:23.430Z,32.39
2023-05-10T14:49:52.557Z,31.87
2023-05-10T14:52:21.364Z,32.13
2023-05-10T14:54:51.440Z,32.45
2023-05-10T14:57:20.157Z,32.80
2023-05-10T14:59:49.053Z,32.84
2023-05-10T15:02:18.423Z,33.23
2023-05-10T15:04:47.600Z,33.37
2023-05-10T15:07:18.415Z,33.64
2023-05-10T15:09:47.343Z,33.67
2023-05-10T15:12:17.456Z,33.37
2023-05-10T15:14:47.622Z,33.11
2023-05-10T15:17:17.264Z,32.66
2023-05-10T15:19:46.005Z,32.40
2023-05-10T15:22:14.714Z,32.35
2023-05-10T15:24:43.513Z,32.22
2023-05-10T15:27:12.546Z,32.56
2023-05-10T15:29:42.647Z,32.67
2023-05-10T15:32:11.389Z,31.85
2023-05-10T15:34:40.207Z,32.42
2023-05-10T15:37:08.911Z,32.79
2023-05-10T15:39:37.688Z,33.37
2023-05-10T15:42:06.633Z,33.61
2023-05-10T15:44:36.091Z,33.68
2023-05-10T15:47:06.522Z,33.91
2023-05-10T15:49:35.977Z,33.98
2023-05-10T15:52:04.783Z,34.26
2023-05-10T15:54:33.493Z,34.64
2023-05-10T15:57:02.195Z,34.82
2023-05-10T15:59:35.769Z,35.01
2023-05-10T16:02:05.931Z,35.22
2023-05-10T16:04:34.767Z,35.46
2023-05-10T16:07:03.609Z,35.21
2023-05-10T16:09:34.508Z,35.31
2023-05-10T16:12:03.439Z,35.44
2023-05-10T16:14:32.173Z,35.80
2023-05-10T16:17:00.984Z,36.15
2023-05-10T16:19:31.418Z,36.28
2023-05-10T16:22:00.303Z,36.55
2023-05-10T16:24:29.061Z,36.54
2023-05-10T16:26:57.845Z,36.37
2023-05-10T16:29:26.845Z,36.39
2023-05-10T16:31:55.613Z,36.20
2023-05-10T16:34:25.456Z,36.54
2023-05-10T16:36:55.646Z,36.27
2023-05-10T16:39:24.390Z,36.31
2023-05-10T16:41:53.116Z,36.77
2023-05-10T16:44:23.509Z,36.71
2023-05-10T16:46:54.998Z,36.95
2023-05-10T16:49:25.321Z,37.00
2023-05-10T16:51:56.342Z,36.98
2023-05-10T16:54:26.390Z,37.15
2023-05-10T16:56:55.238Z,37.49
2023-05-10T16:59:24.220Z,37.68
2023-05-10T17:01:53.469Z,37.65
2023-05-10T17:04:23.382Z,37.76
2023-05-10T17:06:52.154Z,37.90
2023-05-10T17:09:22.289Z,38.09
2023-05-10T17:11:51.058Z,38.30
2023-05-10T17:14:19.837Z,38.72
2023-05-10T17:17:02.508Z,39.00
2023-05-10T17:19:31.668Z,39.33
2023-05-10T17:22:01.362Z,39.63
2023-05-10T17:24:31.483Z,40.00
2023-05-10T17:27:00.991Z,40.55
2023-05-10T17:29:31.910Z,41.25
2023-05-10T17:32:00.863Z,41.40
2023-05-10T17:34:29.893Z,41.71
2023-05-10T17:36:59.122Z,42.19
2023-05-10T17:39:27.928Z,42.50
2023-05-10T17:41:58.065Z,43.22
2023-05-10T17:44:26.969Z,43.29
2023-05-10T17:46:56.875Z,43.92
2023-05-10T17:49:26.053Z,44.36
2023-05-10T17:51:54.908Z,44.49
2023-05-10T17:54:23.681Z,44.74
2023-05-10T17:56:52.818Z,45.49
2023-05-10T17:59:26.012Z,45.93
2023-05-10T18:01:54.903Z,46.14
2023-05-10T18:04:23.796Z,46.45
2023-05-10T18:06:57.122Z,47.04
2023-05-10T18:09:26.258Z,47.48
2023-05-10T18:11:55.156Z,47.87
2023-05-10T18:14:39.975Z,48.18
2023-05-10T18:17:10.503Z,48.32
2023-05-10T18:19:39.304Z,49.59
2023-05-10T18:22:10.671Z,50.17
2023-05-10T18:24:41.129Z,50.78
2023-05-10T18:27:10.279Z,51.07
2023-05-10T18:29:40.555Z,51.48
2023-05-10T18:32:09.314Z,52.08
2023-05-10T18:34:38.050Z,53.01
2023-05-10T18:37:10.038Z,53.14
2023-05-10T18:39:38.940Z,55.02
2023-05-10T18:42:08.433Z,54.75
2023-05-10T18:44:37.272Z,54.37
2023-05-10T18:47:07.564Z,58.54
2023-05-10T18:49:36.322Z,56.61
2023-05-10T18:52:05.116Z,58.98
2023-05-10T18:54:33.961Z,57.55
2023-05-10T18:57:02.616Z,57.70
2023-05-10T18:59:32.957Z,58.11
2023-05-10T19:02:01.999Z,58.65
2023-05-10T19:04:32.316Z,59.38
2023-05-10T19:07:02.039Z,59.59
2023-05-10T19:09:30.865Z,60.74
2023-05-10T19:11:59.588Z,60.84
2023-05-10T19:14:28.385Z,60.58
2023-05-10T19:16:57.191Z,60.45
2023-05-10T19:19:26.317Z,62.71
2023-05-10T19:21:56.645Z,62.41
2023-05-10T19:24:26.025Z,61.14
2023-05-10T19:26:56.191Z,61.85
2023-05-10T19:29:24.914Z,61.72
2023-05-10T19:31:53.943Z,61.13
2023-05-10T19:34:22.824Z,61.00
2023-05-10T19:36:51.998Z,61.67
2023-05-10T19:39:22.091Z,61.33
2023-05-10T19:41:50.812Z,62.40
2023-05-10T19:44:19.627Z,62.81
2023-05-10T19:46:48.401Z,63.04
2023-05-10T19:49:18.271Z,63.28
2023-05-10T19:51:46.931Z,63.17
2023-05-10T19:54:15.654Z,63.01
2023-05-10T19:56:45.724Z,63.29
2023-05-10T19:59:14.498Z,66.19
2023-05-10T20:01:43.312Z,64.32
2023-05-10T20:04:12.103Z,66.67
2023-05-10T20:06:40.873Z,64.39
2023-05-10T20:09:09.900Z,64.49
2023-05-10T20:11:38.545Z,64.42
2023-05-10T20:14:09.849Z,64.67
2023-05-10T20:16:38.577Z,64.49
2023-05-10T20:19:07.404Z,65.94
2023-05-10T20:21:36.174Z,65.04
2023-05-10T20:24:05.083Z,65.23
2023-05-10T20:26:34.001Z,66.69
2023-05-10T20:29:02.809Z,66.18
2023-05-10T20:31:32.951Z,65.80
2023-05-10T20:34:01.771Z,65.45
2023-05-10T20:36:31.214Z,65.88
2023-05-10T20:38:59.982Z,68.99
2023-05-10T20:41:28.721Z,67.08
2023-05-10T20:43:57.428Z,66.67
2023-05-10T20:46:27.058Z,66.57
2023-05-10T20:48:57.279Z,68.01
2023-05-10T20:51:26.376Z,67.50
2023-05-10T20:53:57.007Z,67.96
2023-05-10T20:56:26.840Z,69.83
2023-05-10T20:58:55.511Z,69.17
2023-05-10T21:01:24.392Z,68.43
2023-05-10T21:03:53.188Z,68.55
2023-05-10T21:06:23.272Z,68.53
2023-05-10T21:08:51.954Z,68.88
2023-05-10T21:11:20.812Z,69.17
2023-05-10T21:13:49.541Z,69.65
2023-05-10T21:16:18.343Z,69.86
2023-05-10T21:18:47.138Z,70.54
2023-05-10T21:21:15.952Z,70.95
2023-05-10T21:23:47.668Z,72.37
2023-05-10T21:26:16.942Z,73.03
2023-05-10T21:28:47.006Z,72.84
2023-05-10T21:31:16.138Z,73.23
2023-05-10T21:33:45.798Z,73.90
2023-05-10T21:36:14.510Z,74.44
2023-05-10T21:38:44.482Z,75.12
2023-05-10T21:41:14.641Z,75.15
2023-05-10T21:43:43.801Z,75.31
2023-05-10T21:46:13.497Z,76.05
2023-05-10T21:48:42.285Z,76.25
2023-05-10T21:51:11.956Z,76.58
2023-05-10T21:53:40.808Z,77.74
2023-05-10T21:56:09.593Z,78.22
2023-05-10T21:58:39.717Z,78.34
2023-05-10T22:01:08.625Z,78.43
2023-05-10T22:03:37.462Z,78.65
2023-05-10T22:06:06.700Z,79.62
2023-05-10T22:08:35.602Z,80.64
2023-05-10T22:11:04.306Z,81.25
2023-05-10T22:13:33.030Z,81.71
2023-05-10T22:16:03.141Z,81.58
2023-05-10T22:18:31.977Z,81.58
2023-05-10T22:21:00.755Z,82.05
2023-05-10T22:23:29.454Z,83.75
2023-05-10T22:26:02.662Z,83.76
2023-05-10T22:28:31.556Z,84.85
2023-05-10T22:31:00.349Z,87.19
2023-05-10T22:33:30.455Z,87.47
2023-05-10T22:35:59.118Z,86.22
2023-05-10T22:38:27.844Z,86.16
2023-05-10T22:40:56.644Z,86.28
2023-05-10T22:43:25.563Z,86.50
2023-05-10T22:45:54.432Z,86.96
2023-05-10T22:48:23.165Z,87.62
2023-05-10T22:50:53.231Z,88.25
2023-05-10T22:53:21.988Z,88.02
2023-05-10T22:55:50.708Z,89.99
2023-05-10T22:58:19.739Z,94.01
2023-05-10T23:00:48.500Z,96.17
2023-05-10T23:03:17.321Z,95.98
2023-05-10T23:05:46.202Z,95.95
2023-05-10T23:08:16.295Z,97.26
2023-05-10T23:10:45.026Z,98.44
2023-05-10T23:13:14.464Z,100.00
2023-05-10T23:15:43.708Z,99.84
2023-05-10T23:18:12.864Z,99.73
2023-05-10T23:20:43.231Z,100.00
2023-05-10T23:23:12.022Z,100.00
2023-05-10T23:25:42.109Z,100.00
2023-05-10T23:28:10.902Z,100.00
2023-05-10T23:30:39.596Z,100.00
2023-05-10T23:33:09.044Z,100.00
2023-05-10T23:35:37.950Z,100.00
2023-05-10T23:38:06.985Z,100.00
2023-05-10T23:40:37.406Z,99.76
2023-05-10T23:43:07.523Z,100.00
2023-05-10T23:45:36.608Z,99.28
2023-05-10T23:48:05.646Z,98.74
2023-05-10T23:50:34.445Z,98.21
2023-05-10T23:53:03.105Z,98.16
2023-05-10T23:55:31.804Z,99.72
2023-05-10T23:58:00.529Z,99.43
